sensor_id;sensor_type;location;lat;lon;timestamp;P1;durP1;ratioP1;P2;durP2;ratioP2
15665;SDS011;20725;51.196;3.510;2023-10-19T00:00:05;0.23;;;0.23;;
15665;SDS011;20725;51.196;3.510;2023-10-19T00:02:48;0.20;;;0.20;;
15665;SDS011;20725;51.196;3.510;2023-10-19T00:05:16;0.20;;;0.20;;
15665;SDS011;20725;51.196;3.510;2023-10-19T00:07:45;0.57;;;0.57;;
15665;SDS011;20725;51.196;3.510;2023-10-19T00:10:11;0.20;;;0.20;;
15665;SDS011;20725;51.196;3.510;2023-10-19T00:12:41;0.40;;;0.40;;
15665;SDS011;20725;51.196;3.510;2023-10-19T00:15:09;0.30;;;0.30;;
15665;SDS011;20725;51.196;3.510;2023-10-19T00:17:38;0.20;;;0.20;;
15665;SDS011;20725;51.196;3.510;2023-10-19T00:20:11;0.20;;;0.20;;
15665;SDS011;20725;51.196;3.510;2023-10-19T00:23:02;0.23;;;0.23;;
15665;SDS011;20725;51.196;3.510;2023-10-19T00:25:30;0.27;;;0.27;;
15665;SDS011;20725;51.196;3.510;2023-10-19T00:27:59;0.20;;;0.20;;
15665;SDS011;20725;51.196;3.510;2023-10-19T00:30:29;0.20;;;0.20;;
15665;SDS011;20725;51.196;3.510;2023-10-19T00:32:58;0.30;;;0.30;;
15665;SDS011;20725;51.196;3.510;2023-10-19T00:35:30;0.20;;;0.20;;
15665;SDS011;20725;51.196;3.510;2023-10-19T00:38:01;0.20;;;0.20;;
15665;SDS011;20725;51.196;3.510;2023-10-19T00:40:42;0.50;;;0.37;;
15665;SDS011;20725;51.196;3.510;2023-10-19T00:43:12;4.97;;;1.83;;
15665;SDS011;20725;51.196;3.510;2023-10-19T00:45:43;2.30;;;1.10;;
15665;SDS011;20725;51.196;3.510;2023-10-19T00:48:12;4.80;;;1.90;;
15665;SDS011;20725;51.196;3.510;2023-10-19T00:50:44;2.77;;;1.13;;
15665;SDS011;20725;51.196;3.510;2023-10-19T00:53:17;3.50;;;1.37;;
15665;SDS011;20725;51.196;3.510;2023-10-19T00:55:45;5.30;;;1.27;;
15665;SDS011;20725;51.196;3.510;2023-10-19T00:58:12;7.87;;;1.73;;
15665;SDS011;20725;51.196;3.510;2023-10-19T01:00:43;2.87;;;1.43;;
15665;SDS011;20725;51.196;3.510;2023-10-19T01:03:14;2.13;;;1.03;;
15665;SDS011;20725;51.196;3.510;2023-10-19T01:05:45;3.73;;;1.50;;
15665;SDS011;20725;51.196;3.510;2023-10-19T01:08:15;4.10;;;1.50;;
15665;SDS011;20725;51.196;3.510;2023-10-19T01:10:50;1.53;;;1.30;;
15665;SDS011;20725;51.196;3.510;2023-10-19T01:13:19;5.60;;;1.47;;
15665;SDS011;20725;51.196;3.510;2023-10-19T01:15:52;4.10;;;1.53;;
15665;SDS011;20725;51.196;3.510;2023-10-19T01:18:21;4.70;;;1.73;;
15665;SDS011;20725;51.196;3.510;2023-10-19T01:20:55;9.53;;;1.40;;
15665;SDS011;20725;51.196;3.510;2023-10-19T01:23:25;8.03;;;1.50;;
15665;SDS011;20725;51.196;3.510;2023-10-19T01:25:53;3.10;;;1.20;;
15665;SDS011;20725;51.196;3.510;2023-10-19T01:28:33;7.87;;;1.67;;
15665;SDS011;20725;51.196;3.510;2023-10-19T01:31:13;4.30;;;1.40;;
15665;SDS011;20725;51.196;3.510;2023-10-19T01:33:41;4.93;;;1.50;;
15665;SDS011;20725;51.196;3.510;2023-10-19T01:36:10;6.33;;;1.57;;
15665;SDS011;20725;51.196;3.510;2023-10-19T01:38:37;7.83;;;1.77;;
15665;SDS011;20725;51.196;3.510;2023-10-19T01:41:06;7.30;;;1.70;;
15665;SDS011;20725;51.196;3.510;2023-10-19T01:43:38;4.07;;;1.63;;
15665;SDS011;20725;51.196;3.510;2023-10-19T01:46:06;6.70;;;1.63;;
15665;SDS011;20725;51.196;3.510;2023-10-19T01:48:37;5.70;;;1.60;;
15665;SDS011;20725;51.196;3.510;2023-10-19T01:51:05;5.13;;;1.43;;
15665;SDS011;20725;51.196;3.510;2023-10-19T01:53:32;3.50;;;1.60;;
15665;SDS011;20725;51.196;3.510;2023-10-19T01:56:02;5.90;;;1.73;;
15665;SDS011;20725;51.196;3.510;2023-10-19T01:58:30;12.13;;;1.87;;
15665;SDS011;20725;51.196;3.510;2023-10-19T02:01:01;7.00;;;1.83;;
15665;SDS011;20725;51.196;3.510;2023-10-19T02:03:31;9.87;;;2.10;;
15665;SDS011;20725;51.196;3.510;2023-10-19T02:06:00;6.60;;;1.80;;
15665;SDS011;20725;51.196;3.510;2023-10-19T02:08:35;4.47;;;1.87;;
15665;SDS011;20725;51.196;3.510;2023-10-19T02:11:06;6.93;;;1.67;;
15665;SDS011;20725;51.196;3.510;2023-10-19T02:13:41;3.63;;;1.50;;
15665;SDS011;20725;51.196;3.510;2023-10-19T02:16:10;5.03;;;1.43;;
15665;SDS011;20725;51.196;3.510;2023-10-19T02:18:36;2.50;;;1.13;;
15665;SDS011;20725;51.196;3.510;2023-10-19T02:21:04;4.13;;;1.50;;
15665;SDS011;20725;51.196;3.510;2023-10-19T02:23:32;4.77;;;1.73;;
15665;SDS011;20725;51.196;3.510;2023-10-19T02:26:00;8.87;;;2.30;;
15665;SDS011;20725;51.196;3.510;2023-10-19T02:28:29;5.80;;;1.80;;
15665;SDS011;20725;51.196;3.510;2023-10-19T02:30:58;9.17;;;1.60;;
15665;SDS011;20725;51.196;3.510;2023-10-19T02:33:36;6.33;;;1.60;;
15665;SDS011;20725;51.196;3.510;2023-10-19T02:36:04;7.77;;;1.50;;
15665;SDS011;20725;51.196;3.510;2023-10-19T02:38:37;6.23;;;2.07;;
15665;SDS011;20725;51.196;3.510;2023-10-19T02:41:05;4.70;;;1.93;;
15665;SDS011;20725;51.196;3.510;2023-10-19T02:43:33;7.63;;;2.17;;
15665;SDS011;20725;51.196;3.510;2023-10-19T02:46:00;4.03;;;2.10;;
15665;SDS011;20725;51.196;3.510;2023-10-19T02:48:28;5.20;;;1.80;;
15665;SDS011;20725;51.196;3.510;2023-10-19T02:50:56;6.70;;;1.70;;
15665;SDS011;20725;51.196;3.510;2023-10-19T02:53:31;3.43;;;1.53;;
15665;SDS011;20725;51.196;3.510;2023-10-19T02:55:58;8.33;;;2.17;;
15665;SDS011;20725;51.196;3.510;2023-10-19T02:58:26;4.07;;;1.60;;
15665;SDS011;20725;51.196;3.510;2023-10-19T03:00:54;10.10;;;1.90;;
15665;SDS011;20725;51.196;3.510;2023-10-19T03:03:23;7.13;;;1.83;;
15665;SDS011;20725;51.196;3.510;2023-10-19T03:05:49;9.57;;;2.00;;
15665;SDS011;20725;51.196;3.510;2023-10-19T03:08:18;3.73;;;1.40;;
15665;SDS011;20725;51.196;3.510;2023-10-19T03:10:44;6.27;;;1.53;;
15665;SDS011;20725;51.196;3.510;2023-10-19T03:13:25;7.73;;;1.87;;
15665;SDS011;20725;51.196;3.510;2023-10-19T03:15:54;6.43;;;1.60;;
15665;SDS011;20725;51.196;3.510;2023-10-19T03:18:22;7.33;;;1.80;;
15665;SDS011;20725;51.196;3.510;2023-10-19T03:20:50;7.03;;;1.60;;
15665;SDS011;20725;51.196;3.510;2023-10-19T03:23:18;10.67;;;1.80;;
15665;SDS011;20725;51.196;3.510;2023-10-19T03:25:45;4.23;;;1.73;;
15665;SDS011;20725;51.196;3.510;2023-10-19T03:28:41;8.47;;;2.07;;
15665;SDS011;20725;51.196;3.510;2023-10-19T03:31:10;9.73;;;2.17;;
15665;SDS011;20725;51.196;3.510;2023-10-19T03:33:43;7.03;;;1.60;;
15665;SDS011;20725;51.196;3.510;2023-10-19T03:36:13;3.27;;;1.60;;
15665;SDS011;20725;51.196;3.510;2023-10-19T03:38:40;6.73;;;2.13;;
15665;SDS011;20725;51.196;3.510;2023-10-19T03:41:09;7.87;;;2.23;;
15665;SDS011;20725;51.196;3.510;2023-10-19T03:43:36;6.60;;;1.87;;
15665;SDS011;20725;51.196;3.510;2023-10-19T03:46:05;10.83;;;1.90;;
15665;SDS011;20725;51.196;3.510;2023-10-19T03:48:45;11.37;;;2.50;;
15665;SDS011;20725;51.196;3.510;2023-10-19T03:51:13;5.63;;;2.00;;
15665;SDS011;20725;51.196;3.510;2023-10-19T03:53:40;8.77;;;2.17;;
15665;SDS011;20725;51.196;3.510;2023-10-19T03:56:12;9.30;;;2.03;;
15665;SDS011;20725;51.196;3.510;2023-10-19T03:58:40;9.40;;;2.17;;
15665;SDS011;20725;51.196;3.510;2023-10-19T04:01:12;7.93;;;2.37;;
15665;SDS011;20725;51.196;3.510;2023-10-19T04:03:41;5.43;;;2.13;;
15665;SDS011;20725;51.196;3.510;2023-10-19T04:06:10;8.07;;;2.63;;
15665;SDS011;20725;51.196;3.510;2023-10-19T04:08:39;10.53;;;2.33;;
15665;SDS011;20725;51.196;3.510;2023-10-19T04:11:07;10.23;;;2.00;;
15665;SDS011;20725;51.196;3.510;2023-10-19T04:13:37;7.40;;;1.97;;
15665;SDS011;20725;51.196;3.510;2023-10-19T04:16:04;9.23;;;1.90;;
15665;SDS011;20725;51.196;3.510;2023-10-19T04:18:34;8.47;;;2.33;;
15665;SDS011;20725;51.196;3.510;2023-10-19T04:21:08;10.93;;;2.77;;
15665;SDS011;20725;51.196;3.510;2023-10-19T04:23:37;10.50;;;2.50;;
15665;SDS011;20725;51.196;3.510;2023-10-19T04:26:04;8.10;;;2.13;;
15665;SDS011;20725;51.196;3.510;2023-10-19T04:28:36;10.27;;;2.63;;
15665;SDS011;20725;51.196;3.510;2023-10-19T04:31:09;10.47;;;2.40;;
15665;SDS011;20725;51.196;3.510;2023-10-19T04:33:39;7.87;;;2.83;;
15665;SDS011;20725;51.196;3.510;2023-10-19T04:36:07;9.93;;;2.67;;
15665;SDS011;20725;51.196;3.510;2023-10-19T04:38:38;6.43;;;1.93;;
15665;SDS011;20725;51.196;3.510;2023-10-19T04:41:06;8.93;;;2.20;;
15665;SDS011;20725;51.196;3.510;2023-10-19T04:43:33;8.67;;;2.10;;
15665;SDS011;20725;51.196;3.510;2023-10-19T04:46:04;8.40;;;2.17;;
15665;SDS011;20725;51.196;3.510;2023-10-19T04:48:34;5.83;;;2.20;;
15665;SDS011;20725;51.196;3.510;2023-10-19T04:51:01;13.97;;;3.30;;
15665;SDS011;20725;51.196;3.510;2023-10-19T04:53:30;10.77;;;2.53;;
15665;SDS011;20725;51.196;3.510;2023-10-19T04:56:01;9.80;;;2.27;;
15665;SDS011;20725;51.196;3.510;2023-10-19T04:58:28;16.53;;;2.33;;
15665;SDS011;20725;51.196;3.510;2023-10-19T05:00:56;15.80;;;2.60;;
15665;SDS011;20725;51.196;3.510;2023-10-19T05:03:24;17.40;;;3.10;;
15665;SDS011;20725;51.196;3.510;2023-10-19T05:05:53;11.47;;;2.37;;
15665;SDS011;20725;51.196;3.510;2023-10-19T05:08:21;14.97;;;2.80;;
15665;SDS011;20725;51.196;3.510;2023-10-19T05:10:50;12.70;;;3.00;;
15665;SDS011;20725;51.196;3.510;2023-10-19T05:13:18;11.00;;;2.30;;
15665;SDS011;20725;51.196;3.510;2023-10-19T05:15:46;14.70;;;3.27;;
15665;SDS011;20725;51.196;3.510;2023-10-19T05:18:13;7.03;;;1.97;;
15665;SDS011;20725;51.196;3.510;2023-10-19T05:20:40;11.83;;;2.13;;
15665;SDS011;20725;51.196;3.510;2023-10-19T05:23:08;6.97;;;2.07;;
15665;SDS011;20725;51.196;3.510;2023-10-19T05:25:35;9.57;;;2.30;;
15665;SDS011;20725;51.196;3.510;2023-10-19T05:28:04;6.10;;;2.07;;
15665;SDS011;20725;51.196;3.510;2023-10-19T05:30:33;6.90;;;2.53;;
15665;SDS011;20725;51.196;3.510;2023-10-19T05:33:00;8.40;;;2.83;;
15665;SDS011;20725;51.196;3.510;2023-10-19T05:35:28;9.93;;;2.23;;
15665;SDS011;20725;51.196;3.510;2023-10-19T05:37:55;6.30;;;2.00;;
15665;SDS011;20725;51.196;3.510;2023-10-19T05:40:23;10.40;;;2.77;;
15665;SDS011;20725;51.196;3.510;2023-10-19T05:42:54;11.63;;;2.57;;
15665;SDS011;20725;51.196;3.510;2023-10-19T05:45:22;6.90;;;2.17;;
15665;SDS011;20725;51.196;3.510;2023-10-19T05:47:51;8.47;;;2.30;;
15665;SDS011;20725;51.196;3.510;2023-10-19T05:50:18;7.67;;;2.07;;
15665;SDS011;20725;51.196;3.510;2023-10-19T05:52:45;10.77;;;2.40;;
15665;SDS011;20725;51.196;3.510;2023-10-19T05:55:13;14.90;;;2.87;;
15665;SDS011;20725;51.196;3.510;2023-10-19T05:57:41;10.77;;;2.50;;
15665;SDS011;20725;51.196;3.510;2023-10-19T06:00:10;9.23;;;3.30;;
15665;SDS011;20725;51.196;3.510;2023-10-19T06:02:39;8.00;;;2.13;;
15665;SDS011;20725;51.196;3.510;2023-10-19T06:05:10;11.67;;;2.20;;
15665;SDS011;20725;51.196;3.510;2023-10-19T06:07:37;8.23;;;2.37;;
15665;SDS011;20725;51.196;3.510;2023-10-19T06:10:05;13.27;;;2.97;;
15665;SDS011;20725;51.196;3.510;2023-10-19T06:12:33;7.87;;;3.17;;
15665;SDS011;20725;51.196;3.510;2023-10-19T06:15:02;10.53;;;2.50;;
15665;SDS011;20725;51.196;3.510;2023-10-19T06:17:29;9.50;;;2.93;;
15665;SDS011;20725;51.196;3.510;2023-10-19T06:19:57;10.77;;;2.53;;
15665;SDS011;20725;51.196;3.510;2023-10-19T06:22:26;11.23;;;2.77;;
15665;SDS011;20725;51.196;3.510;2023-10-19T06:24:54;9.30;;;2.90;;
15665;SDS011;20725;51.196;3.510;2023-10-19T06:27:21;12.57;;;2.80;;
15665;SDS011;20725;51.196;3.510;2023-10-19T06:29:49;9.90;;;2.40;;
15665;SDS011;20725;51.196;3.510;2023-10-19T06:32:16;14.67;;;2.50;;
15665;SDS011;20725;51.196;3.510;2023-10-19T06:34:43;10.77;;;3.10;;
15665;SDS011;20725;51.196;3.510;2023-10-19T06:37:10;22.43;;;3.43;;
15665;SDS011;20725;51.196;3.510;2023-10-19T06:39:39;15.07;;;2.87;;
15665;SDS011;20725;51.196;3.510;2023-10-19T06:42:07;15.17;;;3.17;;
15665;SDS011;20725;51.196;3.510;2023-10-19T06:44:40;13.50;;;2.53;;
15665;SDS011;20725;51.196;3.510;2023-10-19T06:47:08;16.80;;;3.10;;
15665;SDS011;20725;51.196;3.510;2023-10-19T06:49:36;12.90;;;2.33;;
15665;SDS011;20725;51.196;3.510;2023-10-19T06:52:03;17.80;;;3.27;;
15665;SDS011;20725;51.196;3.510;2023-10-19T06:54:31;12.03;;;2.80;;
15665;SDS011;20725;51.196;3.510;2023-10-19T06:57:00;16.37;;;2.97;;
15665;SDS011;20725;51.196;3.510;2023-10-19T06:59:28;20.83;;;3.37;;
15665;SDS011;20725;51.196;3.510;2023-10-19T07:01:58;12.17;;;3.50;;
15665;SDS011;20725;51.196;3.510;2023-10-19T07:04:27;15.57;;;3.40;;
15665;SDS011;20725;51.196;3.510;2023-10-19T07:06:55;14.03;;;3.30;;
15665;SDS011;20725;51.196;3.510;2023-10-19T07:09:22;17.77;;;3.47;;
15665;SDS011;20725;51.196;3.510;2023-10-19T07:11:49;10.37;;;3.67;;
15665;SDS011;20725;51.196;3.510;2023-10-19T07:14:19;15.57;;;3.80;;
15665;SDS011;20725;51.196;3.510;2023-10-19T07:16:48;17.27;;;3.40;;
15665;SDS011;20725;51.196;3.510;2023-10-19T07:19:16;11.53;;;3.10;;
15665;SDS011;20725;51.196;3.510;2023-10-19T07:21:45;19.07;;;3.33;;
15665;SDS011;20725;51.196;3.510;2023-10-19T07:24:18;8.20;;;2.80;;
15665;SDS011;20725;51.196;3.510;2023-10-19T07:26:49;10.50;;;3.40;;
15665;SDS011;20725;51.196;3.510;2023-10-19T07:29:31;14.53;;;3.93;;
15665;SDS011;20725;51.196;3.510;2023-10-19T07:32:01;14.40;;;3.27;;
15665;SDS011;20725;51.196;3.510;2023-10-19T07:34:31;18.90;;;4.20;;
15665;SDS011;20725;51.196;3.510;2023-10-19T07:36:58;14.17;;;2.80;;
15665;SDS011;20725;51.196;3.510;2023-10-19T07:39:26;13.70;;;3.20;;
15665;SDS011;20725;51.196;3.510;2023-10-19T07:41:55;16.03;;;3.47;;
15665;SDS011;20725;51.196;3.510;2023-10-19T07:44:22;9.57;;;3.13;;
15665;SDS011;20725;51.196;3.510;2023-10-19T07:46:52;15.33;;;3.17;;
15665;SDS011;20725;51.196;3.510;2023-10-19T07:49:19;9.93;;;2.77;;
15665;SDS011;20725;51.196;3.510;2023-10-19T07:51:47;14.03;;;4.03;;
15665;SDS011;20725;51.196;3.510;2023-10-19T07:54:15;14.40;;;3.23;;
15665;SDS011;20725;51.196;3.510;2023-10-19T07:56:42;7.90;;;2.50;;
15665;SDS011;20725;51.196;3.510;2023-10-19T07:59:10;14.53;;;4.13;;
15665;SDS011;20725;51.196;3.510;2023-10-19T08:01:38;12.13;;;3.40;;
15665;SDS011;20725;51.196;3.510;2023-10-19T08:04:07;14.23;;;3.43;;
15665;SDS011;20725;51.196;3.510;2023-10-19T08:06:35;12.67;;;3.43;;
15665;SDS011;20725;51.196;3.510;2023-10-19T08:09:02;11.10;;;3.33;;
15665;SDS011;20725;51.196;3.510;2023-10-19T08:11:30;7.93;;;3.07;;
15665;SDS011;20725;51.196;3.510;2023-10-19T08:13:59;12.53;;;3.17;;
15665;SDS011;20725;51.196;3.510;2023-10-19T08:16:26;14.80;;;4.03;;
15665;SDS011;20725;51.196;3.510;2023-10-19T08:18:53;20.93;;;8.50;;
15665;SDS011;20725;51.196;3.510;2023-10-19T08:21:22;12.33;;;3.20;;
15665;SDS011;20725;51.196;3.510;2023-10-19T08:23:53;15.23;;;3.93;;
15665;SDS011;20725;51.196;3.510;2023-10-19T08:26:21;11.50;;;2.93;;
15665;SDS011;20725;51.196;3.510;2023-10-19T08:28:48;10.27;;;2.90;;
15665;SDS011;20725;51.196;3.510;2023-10-19T08:31:16;13.83;;;3.77;;
15665;SDS011;20725;51.196;3.510;2023-10-19T08:33:44;8.43;;;2.77;;
15665;SDS011;20725;51.196;3.510;2023-10-19T08:36:16;11.63;;;3.00;;
15665;SDS011;20725;51.196;3.510;2023-10-19T08:38:46;9.70;;;2.90;;
15665;SDS011;20725;51.196;3.510;2023-10-19T08:41:13;8.33;;;3.23;;
15665;SDS011;20725;51.196;3.510;2023-10-19T08:43:41;9.57;;;2.93;;
15665;SDS011;20725;51.196;3.510;2023-10-19T08:46:09;7.90;;;2.57;;
15665;SDS011;20725;51.196;3.510;2023-10-19T08:48:37;13.67;;;2.57;;
15665;SDS011;20725;51.196;3.510;2023-10-19T08:51:07;12.03;;;2.80;;
15665;SDS011;20725;51.196;3.510;2023-10-19T08:53:36;10.43;;;2.83;;
15665;SDS011;20725;51.196;3.510;2023-10-19T08:56:08;8.60;;;2.73;;
15665;SDS011;20725;51.196;3.510;2023-10-19T08:58:37;11.37;;;3.50;;
15665;SDS011;20725;51.196;3.510;2023-10-19T09:01:04;8.27;;;2.63;;
15665;SDS011;20725;51.196;3.510;2023-10-19T09:03:35;9.93;;;2.90;;
15665;SDS011;20725;51.196;3.510;2023-10-19T09:06:04;11.13;;;2.80;;
15665;SDS011;20725;51.196;3.510;2023-10-19T09:08:31;9.87;;;3.30;;
15665;SDS011;20725;51.196;3.510;2023-10-19T09:11:05;9.00;;;3.00;;
15665;SDS011;20725;51.196;3.510;2023-10-19T09:13:43;12.13;;;4.57;;
15665;SDS011;20725;51.196;3.510;2023-10-19T09:16:12;10.73;;;3.37;;
15665;SDS011;20725;51.196;3.510;2023-10-19T09:18:39;12.10;;;2.80;;
15665;SDS011;20725;51.196;3.510;2023-10-19T09:21:07;12.77;;;2.83;;
15665;SDS011;20725;51.196;3.510;2023-10-19T09:23:37;12.33;;;3.30;;
15665;SDS011;20725;51.196;3.510;2023-10-19T09:26:04;12.47;;;2.70;;
15665;SDS011;20725;51.196;3.510;2023-10-19T09:28:33;10.47;;;2.70;;
15665;SDS011;20725;51.196;3.510;2023-10-19T09:31:03;14.93;;;2.63;;
15665;SDS011;20725;51.196;3.510;2023-10-19T09:33:31;11.50;;;3.30;;
15665;SDS011;20725;51.196;3.510;2023-10-19T09:36:00;13.70;;;3.00;;
15665;SDS011;20725;51.196;3.510;2023-10-19T09:38:29;11.80;;;2.80;;
15665;SDS011;20725;51.196;3.510;2023-10-19T09:40:58;10.30;;;2.93;;
15665;SDS011;20725;51.196;3.510;2023-10-19T09:43:30;11.13;;;3.00;;
15665;SDS011;20725;51.196;3.510;2023-10-19T09:46:00;6.97;;;2.40;;
15665;SDS011;20725;51.196;3.510;2023-10-19T09:48:30;15.63;;;3.20;;
15665;SDS011;20725;51.196;3.510;2023-10-19T09:51:00;19.23;;;3.60;;
15665;SDS011;20725;51.196;3.510;2023-10-19T09:53:29;7.00;;;2.37;;
15665;SDS011;20725;51.196;3.510;2023-10-19T09:55:56;17.30;;;3.07;;
15665;SDS011;20725;51.196;3.510;2023-10-19T09:58:26;14.03;;;3.27;;
15665;SDS011;20725;51.196;3.510;2023-10-19T10:00:55;14.07;;;3.10;;
15665;SDS011;20725;51.196;3.510;2023-10-19T10:03:44;11.73;;;2.80;;
15665;SDS011;20725;51.196;3.510;2023-10-19T10:06:12;12.70;;;3.13;;
15665;SDS011;20725;51.196;3.510;2023-10-19T10:08:40;10.60;;;2.70;;
15665;SDS011;20725;51.196;3.510;2023-10-19T10:11:14;14.07;;;2.87;;
15665;SDS011;20725;51.196;3.510;2023-10-19T10:13:42;11.07;;;3.17;;
15665;SDS011;20725;51.196;3.510;2023-10-19T10:16:11;10.03;;;2.90;;
15665;SDS011;20725;51.196;3.510;2023-10-19T10:18:40;11.30;;;2.67;;
15665;SDS011;20725;51.196;3.510;2023-10-19T10:21:10;10.33;;;2.90;;
15665;SDS011;20725;51.196;3.510;2023-10-19T10:23:41;17.37;;;4.00;;
15665;SDS011;20725;51.196;3.510;2023-10-19T10:26:09;14.67;;;3.20;;
15665;SDS011;20725;51.196;3.510;2023-10-19T10:28:38;15.20;;;3.70;;
15665;SDS011;20725;51.196;3.510;2023-10-19T10:31:08;12.93;;;3.10;;
15665;SDS011;20725;51.196;3.510;2023-10-19T10:33:41;13.93;;;2.70;;
15665;SDS011;20725;51.196;3.510;2023-10-19T10:36:11;12.23;;;2.90;;
15665;SDS011;20725;51.196;3.510;2023-10-19T10:38:39;13.93;;;2.80;;
15665;SDS011;20725;51.196;3.510;2023-10-19T10:41:07;11.40;;;2.90;;
15665;SDS011;20725;51.196;3.510;2023-10-19T10:43:53;9.07;;;3.17;;
15665;SDS011;20725;51.196;3.510;2023-10-19T10:46:22;12.33;;;3.53;;
15665;SDS011;20725;51.196;3.510;2023-10-19T10:48:49;14.30;;;3.17;;
15665;SDS011;20725;51.196;3.510;2023-10-19T10:51:19;14.07;;;3.00;;
15665;SDS011;20725;51.196;3.510;2023-10-19T10:53:48;9.10;;;2.73;;
15665;SDS011;20725;51.196;3.510;2023-10-19T10:56:16;16.73;;;3.37;;
15665;SDS011;20725;51.196;3.510;2023-10-19T10:58:43;10.27;;;3.10;;
15665;SDS011;20725;51.196;3.510;2023-10-19T11:01:13;12.03;;;2.93;;
15665;SDS011;20725;51.196;3.510;2023-10-19T11:03:41;9.47;;;3.40;;
15665;SDS011;20725;51.196;3.510;2023-10-19T11:06:09;12.10;;;3.37;;
15665;SDS011;20725;51.196;3.510;2023-10-19T11:08:40;12.80;;;3.00;;
15665;SDS011;20725;51.196;3.510;2023-10-19T11:11:08;13.87;;;3.57;;
15665;SDS011;20725;51.196;3.510;2023-10-19T11:13:37;9.60;;;3.30;;
15665;SDS011;20725;51.196;3.510;2023-10-19T11:16:05;10.03;;;3.33;;
15665;SDS011;20725;51.196;3.510;2023-10-19T11:18:35;15.47;;;3.60;;
15665;SDS011;20725;51.196;3.510;2023-10-19T11:21:05;13.07;;;3.93;;
15665;SDS011;20725;51.196;3.510;2023-10-19T11:23:38;9.73;;;3.10;;
15665;SDS011;20725;51.196;3.510;2023-10-19T11:26:10;12.67;;;2.80;;
15665;SDS011;20725;51.196;3.510;2023-10-19T11:28:44;10.33;;;3.10;;
15665;SDS011;20725;51.196;3.510;2023-10-19T11:31:16;12.23;;;3.20;;
15665;SDS011;20725;51.196;3.510;2023-10-19T11:33:44;7.03;;;2.30;;
15665;SDS011;20725;51.196;3.510;2023-10-19T11:36:13;14.13;;;3.57;;
15665;SDS011;20725;51.196;3.510;2023-10-19T11:38:41;11.03;;;3.27;;
15665;SDS011;20725;51.196;3.510;2023-10-19T11:41:10;11.67;;;2.60;;
15665;SDS011;20725;51.196;3.510;2023-10-19T11:43:38;11.20;;;2.50;;
15665;SDS011;20725;51.196;3.510;2023-10-19T11:46:06;6.70;;;2.50;;
15665;SDS011;20725;51.196;3.510;2023-10-19T11:48:34;9.17;;;2.70;;
15665;SDS011;20725;51.196;3.510;2023-10-19T11:51:02;8.17;;;2.63;;
15665;SDS011;20725;51.196;3.510;2023-10-19T11:53:31;5.77;;;2.50;;
15665;SDS011;20725;51.196;3.510;2023-10-19T11:56:02;10.40;;;2.83;;
15665;SDS011;20725;51.196;3.510;2023-10-19T11:58:32;7.47;;;2.37;;
15665;SDS011;20725;51.196;3.510;2023-10-19T12:01:00;7.13;;;2.30;;
15665;SDS011;20725;51.196;3.510;2023-10-19T12:03:30;7.33;;;3.00;;
15665;SDS011;20725;51.196;3.510;2023-10-19T12:06:02;8.47;;;2.60;;
15665;SDS011;20725;51.196;3.510;2023-10-19T12:08:33;5.30;;;2.60;;
15665;SDS011;20725;51.196;3.510;2023-10-19T12:11:06;10.20;;;2.67;;
15665;SDS011;20725;51.196;3.510;2023-10-19T12:13:54;16.33;;;3.30;;
15665;SDS011;20725;51.196;3.510;2023-10-19T12:16:29;11.47;;;2.67;;
15665;SDS011;20725;51.196;3.510;2023-10-19T12:19:13;10.07;;;2.73;;
15665;SDS011;20725;51.196;3.510;2023-10-19T12:21:47;8.83;;;2.90;;
15665;SDS011;20725;51.196;3.510;2023-10-19T12:24:31;11.07;;;2.90;;
15665;SDS011;20725;51.196;3.510;2023-10-19T12:27:11;11.70;;;1.87;;
15665;SDS011;20725;51.196;3.510;2023-10-19T12:29:50;8.07;;;2.20;;
15665;SDS011;20725;51.196;3.510;2023-10-19T12:32:39;8.77;;;2.50;;
15665;SDS011;20725;51.196;3.510;2023-10-19T12:35:07;7.27;;;2.63;;
15665;SDS011;20725;51.196;3.510;2023-10-19T12:37:37;7.33;;;2.47;;
15665;SDS011;20725;51.196;3.510;2023-10-19T12:40:11;9.83;;;2.80;;
15665;SDS011;20725;51.196;3.510;2023-10-19T12:42:53;9.07;;;2.63;;
15665;SDS011;20725;51.196;3.510;2023-10-19T12:45:27;6.10;;;2.10;;
15665;SDS011;20725;51.196;3.510;2023-10-19T12:48:02;5.83;;;2.40;;
15665;SDS011;20725;51.196;3.510;2023-10-19T12:50:30;5.37;;;1.90;;
15665;SDS011;20725;51.196;3.510;2023-10-19T12:52:59;8.43;;;2.60;;
15665;SDS011;20725;51.196;3.510;2023-10-19T12:55:29;7.23;;;2.00;;
15665;SDS011;20725;51.196;3.510;2023-10-19T12:57:57;8.33;;;2.20;;
15665;SDS011;20725;51.196;3.510;2023-10-19T13:00:46;5.20;;;2.20;;
15665;SDS011;20725;51.196;3.510;2023-10-19T13:03:14;5.87;;;2.30;;
15665;SDS011;20725;51.196;3.510;2023-10-19T13:05:42;4.93;;;1.93;;
15665;SDS011;20725;51.196;3.510;2023-10-19T13:08:12;5.50;;;2.30;;
15665;SDS011;20725;51.196;3.510;2023-10-19T13:10:44;7.67;;;2.10;;
15665;SDS011;20725;51.196;3.510;2023-10-19T13:13:18;6.97;;;1.53;;
15665;SDS011;20725;51.196;3.510;2023-10-19T13:15:50;5.73;;;2.23;;
15665;SDS011;20725;51.196;3.510;2023-10-19T13:18:21;4.63;;;1.97;;
15665;SDS011;20725;51.196;3.510;2023-10-19T13:20:52;5.77;;;1.47;;
15665;SDS011;20725;51.196;3.510;2023-10-19T13:23:20;3.93;;;1.63;;
15665;SDS011;20725;51.196;3.510;2023-10-19T13:25:48;3.63;;;1.50;;
15665;SDS011;20725;51.196;3.510;2023-10-19T13:28:18;4.23;;;1.80;;
15665;SDS011;20725;51.196;3.510;2023-10-19T13:30:47;3.20;;;1.60;;
15665;SDS011;20725;51.196;3.510;2023-10-19T13:33:17;3.20;;;1.90;;
15665;SDS011;20725;51.196;3.510;2023-10-19T13:35:46;7.07;;;1.77;;
15665;SDS011;20725;51.196;3.510;2023-10-19T13:38:17;5.27;;;2.30;;
15665;SDS011;20725;51.196;3.510;2023-10-19T13:40:56;3.20;;;1.57;;
15665;SDS011;20725;51.196;3.510;2023-10-19T13:43:24;5.17;;;1.80;;
15665;SDS011;20725;51.196;3.510;2023-10-19T13:45:56;4.57;;;1.90;;
15665;SDS011;20725;51.196;3.510;2023-10-19T13:48:36;5.57;;;2.17;;
15665;SDS011;20725;51.196;3.510;2023-10-19T13:51:04;4.20;;;1.60;;
15665;SDS011;20725;51.196;3.510;2023-10-19T13:53:40;3.63;;;1.90;;
15665;SDS011;20725;51.196;3.510;2023-10-19T13:56:11;3.97;;;2.17;;
15665;SDS011;20725;51.196;3.510;2023-10-19T13:58:39;7.40;;;1.70;;
15665;SDS011;20725;51.196;3.510;2023-10-19T14:01:15;3.23;;;1.83;;
15665;SDS011;20725;51.196;3.510;2023-10-19T14:03:45;3.67;;;1.57;;
15665;SDS011;20725;51.196;3.510;2023-10-19T14:06:13;4.43;;;1.90;;
15665;SDS011;20725;51.196;3.510;2023-10-19T14:08:44;3.63;;;1.77;;
15665;SDS011;20725;51.196;3.510;2023-10-19T14:11:14;5.97;;;1.80;;
15665;SDS011;20725;51.196;3.510;2023-10-19T14:13:48;3.40;;;1.70;;
15665;SDS011;20725;51.196;3.510;2023-10-19T14:16:20;4.37;;;1.63;;
15665;SDS011;20725;51.196;3.510;2023-10-19T14:18:50;9.67;;;2.20;;
15665;SDS011;20725;51.196;3.510;2023-10-19T14:21:18;4.80;;;1.93;;
15665;SDS011;20725;51.196;3.510;2023-10-19T14:23:59;4.07;;;1.77;;
15665;SDS011;20725;51.196;3.510;2023-10-19T14:26:27;5.10;;;2.07;;
15665;SDS011;20725;51.196;3.510;2023-10-19T14:28:59;5.93;;;2.10;;
15665;SDS011;20725;51.196;3.510;2023-10-19T14:31:34;7.03;;;2.00;;
15665;SDS011;20725;51.196;3.510;2023-10-19T14:34:13;3.73;;;2.00;;
15665;SDS011;20725;51.196;3.510;2023-10-19T14:36:41;5.37;;;2.23;;
15665;SDS011;20725;51.196;3.510;2023-10-19T14:39:12;6.77;;;1.97;;
15665;SDS011;20725;51.196;3.510;2023-10-19T14:41:45;4.07;;;1.97;;
15665;SDS011;20725;51.196;3.510;2023-10-19T14:44:12;5.57;;;2.20;;
15665;SDS011;20725;51.196;3.510;2023-10-19T14:46:51;5.83;;;2.27;;
15665;SDS011;20725;51.196;3.510;2023-10-19T14:49:19;6.97;;;1.77;;
15665;SDS011;20725;51.196;3.510;2023-10-19T14:51:47;5.37;;;2.07;;
15665;SDS011;20725;51.196;3.510;2023-10-19T14:54:22;5.13;;;2.00;;
15665;SDS011;20725;51.196;3.510;2023-10-19T14:56:49;5.63;;;2.27;;
15665;SDS011;20725;51.196;3.510;2023-10-19T14:59:32;3.37;;;1.80;;